createdAt,value
2023-01-17T00:01:10.325Z,82.86
2023-01-17T00:03:57.612Z,82.03
2023-01-17T00:06:45.616Z,81.65
2023-01-17T00:09:32.755Z,81.70
2023-01-17T00:12:02.025Z,82.06
2023-01-17T00:14:28.761Z,81.98
2023-01-17T00:16:55.328Z,81.87
2023-01-17T00:19:40.336Z,81.75
2023-01-17T00:22:46.214Z,82.06
2023-01-17T00:25:42.087Z,81.48
2023-01-17T00:28:08.752Z,81.83
2023-01-17T00:30:36.472Z,82.61
2023-01-17T00:33:03.386Z,83.55
2023-01-17T00:35:32.105Z,82.94
2023-01-17T00:38:07.594Z,82.86
2023-01-17T00:40:36.023Z,82.39
2023-01-17T00:43:21.827Z,82.51
2023-01-17T00:46:07.207Z,82.34
2023-01-17T00:48:53.444Z,81.35
2023-01-17T00:51:38.922Z,81.25
2023-01-17T00:54:24.964Z,81.92
2023-01-17T00:57:10.643Z,81.81
2023-01-17T00:59:55.902Z,81.43
2023-01-17T01:02:42.373Z,81.41
2023-01-17T01:05:29.617Z,81.23
2023-01-17T01:08:15.427Z,81.07
2023-01-17T01:11:02.198Z,81.71
2023-01-17T01:13:48.626Z,81.53
2023-01-17T01:16:34.797Z,81.50
2023-01-17T01:19:20.580Z,80.80
2023-01-17T01:22:05.845Z,80.98
2023-01-17T01:24:51.015Z,80.92
2023-01-17T01:27:35.934Z,81.13
2023-01-17T01:30:21.437Z,81.17
2023-01-17T01:33:06.798Z,80.67
2023-01-17T01:35:33.419Z,81.42
2023-01-17T01:38:02.265Z,81.01
2023-01-17T01:40:28.922Z,81.20
2023-01-17T01:42:57.578Z,81.12
2023-01-17T01:45:28.863Z,81.65
2023-01-17T01:48:05.568Z,81.51
2023-01-17T01:50:34.949Z,81.40
2023-01-17T01:53:04.240Z,81.82
2023-01-17T01:55:38.326Z,81.77
2023-01-17T01:58:13.095Z,82.56
2023-01-17T02:00:41.009Z,82.17
2023-01-17T02:03:13.218Z,81.74
2023-01-17T02:05:42.481Z,81.31
2023-01-17T02:08:15.283Z,81.54
2023-01-17T02:10:43.986Z,80.87
2023-01-17T02:13:12.317Z,81.73
2023-01-17T02:16:03.112Z,80.84
2023-01-17T02:18:35.818Z,81.09
2023-01-17T02:21:20.703Z,81.41
2023-01-17T02:24:11.982Z,81.04
2023-01-17T02:26:51.351Z,81.16
2023-01-17T02:29:48.654Z,81.02
2023-01-17T02:32:27.489Z,81.35
2023-01-17T02:35:23.420Z,81.71
2023-01-17T02:38:00.287Z,81.41
2023-01-17T02:40:34.382Z,81.30
2023-01-17T02:43:09.390Z,81.85
2023-01-17T02:45:36.025Z,82.50
2023-01-17T02:48:02.989Z,82.28
2023-01-17T02:50:53.048Z,81.75
2023-01-17T02:53:30.941Z,81.56
2023-01-17T02:56:38.855Z,81.80
2023-01-17T02:59:14.755Z,80.91
2023-01-17T03:01:57.971Z,81.46
2023-01-17T03:04:29.254Z,80.92
2023-01-17T03:07:03.100Z,81.31
2023-01-17T03:09:31.764Z,81.80
2023-01-17T03:12:00.144Z,81.80
2023-01-17T03:14:30.116Z,81.63
2023-01-17T03:16:56.855Z,82.00
2023-01-17T03:19:23.419Z,82.36
2023-01-17T03:21:50.046Z,81.78
2023-01-17T03:24:16.582Z,82.07
2023-01-17T03:26:47.807Z,82.16
2023-01-17T03:29:16.515Z,82.16
2023-01-17T03:31:43.105Z,82.26
2023-01-17T03:34:09.797Z,82.32
2023-01-17T03:36:36.610Z,82.16
2023-01-17T03:39:03.925Z,81.44
2023-01-17T03:41:30.499Z,81.95
2023-01-17T03:43:57.090Z,81.63
2023-01-17T03:46:25.551Z,83.01
2023-01-17T03:48:52.899Z,82.94
2023-01-17T03:51:19.634Z,82.95
2023-01-17T03:53:46.977Z,82.59
2023-01-17T03:56:14.895Z,82.36
2023-01-17T03:58:41.884Z,82.71
2023-01-17T04:01:08.821Z,82.90
2023-01-17T04:03:35.507Z,82.78
2023-01-17T04:06:02.058Z,83.06
2023-01-17T04:08:29.385Z,83.00
2023-01-17T04:10:56.340Z,82.87
2023-01-17T04:13:23.003Z,83.68
2023-01-17T04:15:51.420Z,83.78
2023-01-17T04:18:20.466Z,83.49
2023-01-17T04:20:47.085Z,83.43
2023-01-17T04:23:13.825Z,83.05
2023-01-17T04:25:40.415Z,82.53
2023-01-17T04:28:07.608Z,83.03
2023-01-17T04:30:34.274Z,83.14
2023-01-17T04:33:00.889Z,83.70
2023-01-17T04:35:30.337Z,83.47
2023-01-17T04:37:57.072Z,83.38
2023-01-17T04:40:23.910Z,83.41
2023-01-17T04:42:51.510Z,82.88
2023-01-17T04:45:18.370Z,82.40
2023-01-17T04:47:45.131Z,82.58
2023-01-17T04:50:11.843Z,82.83
2023-01-17T04:52:38.506Z,82.74
2023-01-17T04:55:05.713Z,83.54
2023-01-17T04:57:32.367Z,83.38
2023-01-17T04:59:58.997Z,83.41
2023-01-17T05:02:25.671Z,82.72
2023-01-17T05:04:52.251Z,83.58
2023-01-17T05:07:18.894Z,83.11
2023-01-17T05:09:45.508Z,82.70
2023-01-17T05:12:12.101Z,82.81
2023-01-17T05:14:38.833Z,82.83
2023-01-17T05:17:05.435Z,82.96
2023-01-17T05:19:31.995Z,83.35
2023-01-17T05:22:04.132Z,83.29
2023-01-17T05:24:31.645Z,83.03
2023-01-17T05:27:03.029Z,83.54
2023-01-17T05:29:30.794Z,82.68
2023-01-17T05:31:57.609Z,82.52
2023-01-17T05:34:24.401Z,82.65
2023-01-17T05:36:51.114Z,82.34
2023-01-17T05:39:17.775Z,82.99
2023-01-17T05:41:44.703Z,82.88
2023-01-17T05:44:11.562Z,82.80
2023-01-17T05:46:38.338Z,82.79
2023-01-17T05:49:05.356Z,82.74
2023-01-17T05:51:32.459Z,82.48
2023-01-17T05:53:59.094Z,82.32
2023-01-17T05:56:25.774Z,81.86
2023-01-17T05:58:52.446Z,81.88
2023-01-17T06:01:19.520Z,81.49
2023-01-17T06:03:46.364Z,81.95
2023-01-17T06:06:13.227Z,82.22
2023-01-17T06:08:39.890Z,81.74
2023-01-17T06:11:06.589Z,81.92
2023-01-17T06:13:33.588Z,82.31
2023-01-17T06:16:04.223Z,81.84
2023-01-17T06:18:31.581Z,82.09
2023-01-17T06:20:58.384Z,81.93
2023-01-17T06:23:25.783Z,82.39
2023-01-17T06:25:52.888Z,82.83
2023-01-17T06:28:22.207Z,83.94
2023-01-17T06:30:49.182Z,82.87
2023-01-17T06:33:15.920Z,82.89
2023-01-17T06:35:50.131Z,82.67
2023-01-17T06:38:17.269Z,82.96
2023-01-17T06:40:43.837Z,82.39
2023-01-17T06:43:10.558Z,82.91
2023-01-17T06:45:37.136Z,82.59
2023-01-17T06:48:05.214Z,82.85
2023-01-17T06:50:33.646Z,82.67
2023-01-17T06:53:05.493Z,82.29
2023-01-17T06:55:34.125Z,82.41
2023-01-17T06:58:02.899Z,82.17
2023-01-17T07:00:31.357Z,82.14
2023-01-17T07:02:58.354Z,81.86
2023-01-17T07:05:25.484Z,82.64
2023-01-17T07:07:53.502Z,81.97
2023-01-17T07:10:20.919Z,82.34
2023-01-17T07:12:47.711Z,82.03
2023-01-17T07:15:14.352Z,81.70
2023-01-17T07:17:41.047Z,81.73
2023-01-17T07:20:08.457Z,81.44
2023-01-17T07:22:36.992Z,82.32
2023-01-17T07:25:03.709Z,81.56
2023-01-17T07:27:30.738Z,81.47
2023-01-17T07:29:58.040Z,81.82
2023-01-17T07:32:26.612Z,81.52
2023-01-17T07:34:54.038Z,82.19
2023-01-17T07:37:20.964Z,81.56
2023-01-17T07:39:47.543Z,82.17
2023-01-17T07:42:14.116Z,81.98
2023-01-17T07:44:43.912Z,81.89
2023-01-17T07:47:11.516Z,81.14
2023-01-17T07:49:38.220Z,81.47
2023-01-17T07:52:08.020Z,81.46
2023-01-17T07:54:34.724Z,81.57
2023-01-17T07:57:01.977Z,80.78
2023-01-17T07:59:28.687Z,81.24
2023-01-17T08:01:55.318Z,80.89
2023-01-17T08:04:25.682Z,81.13
2023-01-17T08:06:54.352Z,81.32
2023-01-17T08:09:20.965Z,81.19
2023-01-17T08:11:47.602Z,81.49
2023-01-17T08:14:14.177Z,81.14
2023-01-17T08:16:40.868Z,81.22
2023-01-17T08:19:07.464Z,81.29
2023-01-17T08:21:34.018Z,80.75
2023-01-17T08:24:00.708Z,81.71
2023-01-17T08:26:27.398Z,82.46
2023-01-17T08:29:00.433Z,81.99
2023-01-17T08:31:28.494Z,81.25
2023-01-17T08:33:56.468Z,82.09
2023-01-17T08:36:25.623Z,81.72
2023-01-17T08:38:52.919Z,81.48
2023-01-17T08:41:20.910Z,82.17
2023-01-17T08:43:51.791Z,81.43
2023-01-17T08:46:18.847Z,82.58
2023-01-17T08:48:45.649Z,82.06
2023-01-17T08:51:12.445Z,81.85
2023-01-17T08:53:39.043Z,81.28
2023-01-17T08:56:06.135Z,81.54
2023-01-17T08:58:34.914Z,81.07
2023-01-17T09:01:03.446Z,81.34
2023-01-17T09:03:31.519Z,81.56
2023-01-17T09:06:03.183Z,81.20
2023-01-17T09:08:30.768Z,80.96
2023-01-17T09:10:57.506Z,81.49
2023-01-17T09:13:24.206Z,81.63
2023-01-17T09:15:50.797Z,81.45
2023-01-17T09:18:17.419Z,80.82
2023-01-17T09:20:43.990Z,80.86
2023-01-17T09:23:10.547Z,81.19
2023-01-17T09:25:37.294Z,80.96
2023-01-17T09:28:03.875Z,81.58
2023-01-17T09:30:30.445Z,81.75
2023-01-17T09:32:57.040Z,81.44
2023-01-17T09:35:23.731Z,80.88
2023-01-17T09:37:51.473Z,81.32
2023-01-17T09:40:22.851Z,81.38
2023-01-17T09:42:53.526Z,81.59
2023-01-17T09:45:21.119Z,81.82
2023-01-17T09:47:53.562Z,81.82
2023-01-17T09:50:29.336Z,81.35
2023-01-17T09:53:34.788Z,81.63
2023-01-17T09:56:09.877Z,81.06
2023-01-17T09:58:49.676Z,81.45
2023-01-17T10:01:30.936Z,81.06
2023-01-17T10:04:18.234Z,81.25
2023-01-17T10:07:07.686Z,81.12
2023-01-17T10:09:34.791Z,81.39
2023-01-17T10:12:20.075Z,81.06
2023-01-17T10:15:11.732Z,82.05
2023-01-17T10:18:03.732Z,82.44
2023-01-17T10:21:14.314Z,82.15
2023-01-17T10:24:00.144Z,83.34
2023-01-17T10:26:27.399Z,83.52
2023-01-17T10:29:00.868Z,82.98
2023-01-17T10:31:34.826Z,82.86
2023-01-17T10:34:11.965Z,82.66
2023-01-17T10:36:46.434Z,82.44
2023-01-17T10:39:21.014Z,82.37
2023-01-17T10:41:58.487Z,82.20
2023-01-17T10:44:27.893Z,82.16
2023-01-17T10:47:07.045Z,82.14
2023-01-17T10:49:33.906Z,82.02
2023-01-17T10:52:16.584Z,81.39
2023-01-17T10:55:04.955Z,81.37
2023-01-17T10:57:43.308Z,81.88
2023-01-17T11:00:31.651Z,82.07
2023-01-17T11:02:59.869Z,82.10
2023-01-17T11:05:29.495Z,82.38
2023-01-17T11:08:03.691Z,81.70
2023-01-17T11:10:40.174Z,82.56
2023-01-17T11:13:25.662Z,81.93
2023-01-17T11:16:00.688Z,82.96
2023-01-17T11:18:31.603Z,82.53
2023-01-17T11:21:15.866Z,82.51
2023-01-17T11:23:45.711Z,82.44
2023-01-17T11:26:40.709Z,82.08
2023-01-17T11:29:23.669Z,81.90
2023-01-17T11:31:50.295Z,81.46
2023-01-17T11:34:22.319Z,81.59
2023-01-17T11:36:49.954Z,81.36
2023-01-17T11:39:19.465Z,81.95
2023-01-17T11:41:47.804Z,81.16
2023-01-17T11:44:21.719Z,81.63
2023-01-17T11:46:48.837Z,82.06
2023-01-17T11:49:25.043Z,81.66
2023-01-17T11:51:56.244Z,81.88
2023-01-17T11:54:33.425Z,81.83
2023-01-17T11:57:01.420Z,81.32
2023-01-17T11:59:34.173Z,81.37
2023-01-17T12:02:15.691Z,81.67
2023-01-17T12:05:07.690Z,81.76
2023-01-17T12:08:13.917Z,82.14
2023-01-17T12:10:46.457Z,81.35
2023-01-17T12:13:46.843Z,81.72
2023-01-17T12:16:36.907Z,81.26
2023-01-17T12:19:03.478Z,81.72
2023-01-17T12:21:41.675Z,81.29
2023-01-17T12:24:38.907Z,80.46
2023-01-17T12:27:13.986Z,80.77
2023-01-17T12:29:58.730Z,81.54
2023-01-17T12:32:37.574Z,80.92
2023-01-17T12:35:13.220Z,80.81
2023-01-17T12:37:44.020Z,81.21
2023-01-17T12:40:13.447Z,81.31
2023-01-17T12:42:48.871Z,80.96
2023-01-17T12:45:26.188Z,80.85
2023-01-17T12:47:59.822Z,80.71
2023-01-17T12:50:30.984Z,81.08
2023-01-17T12:53:27.493Z,80.34
2023-01-17T12:56:05.429Z,80.73
2023-01-17T12:58:46.780Z,80.87
2023-01-17T13:01:30.863Z,80.39
2023-01-17T13:04:19.860Z,81.21
2023-01-17T13:07:01.050Z,82.30
2023-01-17T13:09:45.590Z,82.02
2023-01-17T13:12:15.298Z,81.71
2023-01-17T13:14:42.127Z,82.30
2023-01-17T13:17:34.739Z,81.50
2023-01-17T13:20:14.540Z,82.52
2023-01-17T13:22:43.255Z,82.17
2023-01-17T13:25:30.727Z,81.72
2023-01-17T13:28:03.296Z,81.42
2023-01-17T13:30:58.920Z,81.07
2023-01-17T13:33:45.079Z,81.40
2023-01-17T13:36:30.209Z,81.79
2023-01-17T13:39:13.073Z,82.55
2023-01-17T13:41:51.266Z,82.16
2023-01-17T13:44:24.666Z,81.37
2023-01-17T13:47:11.255Z,81.75
2023-01-17T13:49:40.735Z,82.12
2023-01-17T13:52:19.522Z,81.51
2023-01-17T13:54:49.563Z,81.59
2023-01-17T13:57:30.252Z,81.69
2023-01-17T13:59:59.134Z,81.52
2023-01-17T14:02:31.488Z,82.38
2023-01-17T14:05:21.351Z,81.69
2023-01-17T14:08:14.344Z,81.65
2023-01-17T14:10:53.404Z,81.78
2023-01-17T14:13:33.913Z,81.70
2023-01-17T14:16:02.004Z,81.87
2023-01-17T14:18:37.623Z,82.68
2023-01-17T14:21:09.874Z,82.47
2023-01-17T14:24:04.954Z,82.30
2023-01-17T14:26:37.173Z,82.54
2023-01-17T14:29:41.159Z,82.04
2023-01-17T14:32:14.829Z,81.92
2023-01-17T14:34:44.271Z,82.22
2023-01-17T14:37:18.728Z,82.57
2023-01-17T14:39:47.623Z,81.95
2023-01-17T14:42:18.470Z,82.43
2023-01-17T14:44:50.885Z,82.69
2023-01-17T14:47:17.831Z,82.75
2023-01-17T14:49:44.665Z,83.13
2023-01-17T14:52:17.719Z,82.71
2023-01-17T14:54:49.467Z,81.69
2023-01-17T14:57:28.352Z,82.19
2023-01-17T15:00:13.254Z,81.83
2023-01-17T15:02:44.181Z,81.63
2023-01-17T15:05:14.161Z,81.77
2023-01-17T15:07:43.192Z,82.13
2023-01-17T15:10:15.918Z,80.76
2023-01-17T15:12:46.631Z,82.19
2023-01-17T15:15:32.020Z,82.09
2023-01-17T15:18:29.393Z,82.61
2023-01-17T15:20:56.088Z,81.98
2023-01-17T15:23:25.075Z,83.30
2023-01-17T15:25:53.594Z,83.16
2023-01-17T15:28:20.331Z,82.89
2023-01-17T15:31:23.953Z,84.53
2023-01-17T15:33:56.307Z,84.02
2023-01-17T15:36:28.801Z,84.50
2023-01-17T15:39:01.739Z,84.24
2023-01-17T15:41:33.527Z,83.71
2023-01-17T15:44:00.822Z,83.84
2023-01-17T15:46:56.252Z,82.55
2023-01-17T15:49:25.561Z,83.08
2023-01-17T15:51:54.604Z,81.71
2023-01-17T15:54:35.235Z,82.12
2023-01-17T15:57:24.941Z,82.29
2023-01-17T15:59:59.996Z,83.59
2023-01-17T16:02:33.089Z,82.94
2023-01-17T16:05:01.710Z,82.57
2023-01-17T16:07:35.703Z,81.77
2023-01-17T16:10:07.766Z,81.89
2023-01-17T16:12:34.346Z,81.21
2023-01-17T16:15:12.477Z,81.86
2023-01-17T16:17:45.610Z,82.38
2023-01-17T16:20:19.263Z,82.92
2023-01-17T16:22:46.834Z,83.37
2023-01-17T16:25:16.034Z,82.51
2023-01-17T16:27:43.248Z,83.21
2023-01-17T16:30:12.308Z,82.62
2023-01-17T16:32:38.923Z,82.58
2023-01-17T16:35:07.119Z,83.85
2023-01-17T16:37:33.784Z,82.89
2023-01-17T16:40:00.557Z,83.33
2023-01-17T16:42:28.610Z,82.52
2023-01-17T16:44:55.393Z,82.51
2023-01-17T16:47:22.534Z,81.52
2023-01-17T16:49:49.065Z,82.27
2023-01-17T16:52:18.116Z,81.82
2023-01-17T16:54:44.717Z,82.08
2023-01-17T16:57:11.321Z,81.90
2023-01-17T16:59:50.187Z,82.29
2023-01-17T17:02:18.671Z,82.40
2023-01-17T17:04:45.692Z,81.95
2023-01-17T17:07:12.404Z,82.05
2023-01-17T17:09:38.924Z,82.85
2023-01-17T17:12:06.075Z,82.40
2023-01-17T17:14:32.636Z,81.70
2023-01-17T17:17:00.899Z,81.52
2023-01-17T17:19:30.274Z,81.37
2023-01-17T17:22:01.898Z,81.89
2023-01-17T17:24:28.959Z,82.59
2023-01-17T17:26:55.598Z,83.03
2023-01-17T17:29:22.180Z,83.18
2023-01-17T17:31:48.739Z,82.47
2023-01-17T17:34:15.727Z,82.49
2023-01-17T17:36:42.865Z,83.28
2023-01-17T17:39:14.800Z,83.18
2023-01-17T17:41:43.135Z,83.04
2023-01-17T17:44:10.348Z,82.72
2023-01-17T17:46:37.489Z,83.27
2023-01-17T17:49:04.739Z,83.74
2023-01-17T17:51:36.616Z,82.88
2023-01-17T17:54:08.672Z,83.98
2023-01-17T17:56:36.013Z,83.34
2023-01-17T17:59:04.653Z,83.52
2023-01-17T18:01:31.756Z,82.89
2023-01-17T18:04:02.764Z,82.63
2023-01-17T18:06:30.191Z,84.15
2023-01-17T18:08:56.778Z,83.76
2023-01-17T18:11:26.077Z,84.01
2023-01-17T18:13:54.850Z,83.43
2023-01-17T18:16:28.389Z,83.06
2023-01-17T18:18:56.969Z,82.29
2023-01-17T18:21:25.257Z,82.66
2023-01-17T18:23:54.921Z,82.36
2023-01-17T18:26:33.269Z,83.03
2023-01-17T18:29:01.156Z,82.62
2023-01-17T18:31:29.215Z,83.10
2023-01-17T18:33:57.752Z,83.54
2023-01-17T18:36:25.757Z,83.20
2023-01-17T18:38:52.385Z,82.76
2023-01-17T18:41:22.103Z,82.77
2023-01-17T18:43:49.886Z,82.33
2023-01-17T18:46:17.645Z,81.32
2023-01-17T18:48:44.844Z,82.67
2023-01-17T18:51:13.858Z,83.62
2023-01-17T18:53:42.331Z,83.20
2023-01-17T18:56:12.276Z,82.47
2023-01-17T18:58:44.130Z,82.12
2023-01-17T19:01:23.211Z,81.38
2023-01-17T19:03:52.166Z,81.59
2023-01-17T19:06:21.717Z,82.42
2023-01-17T19:08:49.399Z,82.15
2023-01-17T19:11:15.964Z,82.08
2023-01-17T19:13:42.548Z,82.08
2023-01-17T19:16:15.682Z,80.92
2023-01-17T19:18:42.882Z,81.56
2023-01-17T19:21:15.695Z,82.61
2023-01-17T19:23:45.759Z,82.55
2023-01-17T19:26:14.187Z,82.07
2023-01-17T19:28:42.482Z,82.91
2023-01-17T19:31:17.987Z,81.36
2023-01-17T19:33:46.830Z,81.77
2023-01-17T19:36:19.604Z,83.32
2023-01-17T19:39:03.109Z,82.44
2023-01-17T19:41:31.795Z,81.99
2023-01-17T19:44:00.938Z,82.47
2023-01-17T19:46:27.917Z,81.23
2023-01-17T19:48:56.779Z,81.69
2023-01-17T19:51:24.883Z,81.42
2023-01-17T19:53:51.617Z,81.53
2023-01-17T19:56:20.402Z,82.15
2023-01-17T19:58:47.841Z,81.29
2023-01-17T20:01:20.294Z,81.47
2023-01-17T20:03:48.695Z,82.68
2023-01-17T20:06:18.207Z,81.28
2023-01-17T20:08:45.344Z,82.29
2023-01-17T20:11:18.553Z,82.34
2023-01-17T20:13:46.037Z,81.79
2023-01-17T20:16:15.434Z,82.63
2023-01-17T20:18:42.910Z,82.44
2023-01-17T20:21:13.000Z,83.02
2023-01-17T20:23:44.186Z,82.67
2023-01-17T20:26:11.598Z,82.54
2023-01-17T20:28:40.497Z,82.43
2023-01-17T20:31:15.233Z,83.51
2023-01-17T20:33:43.369Z,83.95
2023-01-17T20:36:17.746Z,83.59
2023-01-17T20:38:44.711Z,83.07
2023-01-17T20:41:18.216Z,83.01
2023-01-17T20:43:47.753Z,83.83
2023-01-17T20:46:14.749Z,82.64
2023-01-17T20:48:51.969Z,83.24
2023-01-17T20:51:19.990Z,83.13
2023-01-17T20:53:50.640Z,83.14
2023-01-17T20:56:18.837Z,82.97
2023-01-17T20:58:45.779Z,82.14
2023-01-17T21:01:20.910Z,81.73
2023-01-17T21:03:51.469Z,81.81
2023-01-17T21:06:20.440Z,79.73
2023-01-17T21:08:48.283Z,80.82
2023-01-17T21:11:19.509Z,80.81
2023-01-17T21:13:47.251Z,80.45
2023-01-17T21:16:16.346Z,80.35
2023-01-17T21:18:43.254Z,80.08
2023-01-17T21:21:14.791Z,80.82
2023-01-17T21:23:43.862Z,80.82
2023-01-17T21:26:13.263Z,80.59
2023-01-17T21:28:43.152Z,80.52
2023-01-17T21:31:25.275Z,80.97
2023-01-17T21:34:06.468Z,81.25
2023-01-17T21:36:35.483Z,80.78
2023-01-17T21:39:05.518Z,80.16
2023-01-17T21:41:38.144Z,80.63
2023-01-17T21:44:08.559Z,80.40
2023-01-17T21:46:39.499Z,81.02
2023-01-17T21:49:07.332Z,80.46
2023-01-17T21:51:52.816Z,81.19
2023-01-17T21:54:20.313Z,80.03
2023-01-17T21:57:05.197Z,80.65
2023-01-17T21:59:31.927Z,79.95
2023-01-17T22:01:58.648Z,80.97
2023-01-17T22:04:25.722Z,80.58
2023-01-17T22:06:52.254Z,80.47
2023-01-17T22:09:18.807Z,81.54
2023-01-17T22:11:45.329Z,80.82
2023-01-17T22:14:12.000Z,80.90
2023-01-17T22:16:38.600Z,81.24
2023-01-17T22:19:05.233Z,80.34
2023-01-17T22:21:31.760Z,81.16
2023-01-17T22:23:59.918Z,80.36
2023-01-17T22:26:29.997Z,81.05
2023-01-17T22:29:00.154Z,80.26
2023-01-17T22:31:28.270Z,80.38
2023-01-17T22:34:00.250Z,80.60
2023-01-17T22:36:26.995Z,80.28
2023-01-17T22:38:53.723Z,80.38
2023-01-17T22:41:22.523Z,79.94
2023-01-17T22:43:51.708Z,79.80
2023-01-17T22:46:21.351Z,80.10
2023-01-17T22:48:48.491Z,79.15
2023-01-17T22:51:17.245Z,80.48
2023-01-17T22:53:46.358Z,81.01
2023-01-17T22:56:15.817Z,80.77
2023-01-17T22:58:44.956Z,81.42
2023-01-17T23:01:17.983Z,80.45
2023-01-17T23:03:46.443Z,79.51
2023-01-17T23:06:22.473Z,80.44
2023-01-17T23:08:51.823Z,80.73
2023-01-17T23:11:40.486Z,80.66
2023-01-17T23:14:11.691Z,80.69
2023-01-17T23:17:07.681Z,79.62
2023-01-17T23:19:36.831Z,80.13
2023-01-17T23:22:16.111Z,80.44
2023-01-17T23:24:49.906Z,79.50
2023-01-17T23:27:44.239Z,78.92
2023-01-17T23:30:15.361Z,79.20
2023-01-17T23:32:53.483Z,79.59
2023-01-17T23:35:22.928Z,78.74
2023-01-17T23:38:08.369Z,79.87
2023-01-17T23:40:36.813Z,80.13
2023-01-17T23:43:23.147Z,79.72
2023-01-17T23:45:51.510Z,79.96
2023-01-17T23:48:18.880Z,80.54
2023-01-17T23:50:48.342Z,81.48
2023-01-17T23:53:22.394Z,81.21
2023-01-17T23:56:05.934Z,82.56
2023-01-17T23:58:33.856Z,83.34
